sensor_id;sensor_type;location;lat;lon;timestamp;temperature;humidity
26224;DHT22;14820;48.682;8.890;2022-10-16T00:00:43;14.40;99.90
26224;DHT22;14820;48.682;8.890;2022-10-16T00:03:09;14.40;99.90
26224;DHT22;14820;48.682;8.890;2022-10-16T00:05:40;14.40;99.90
26224;DHT22;14820;48.682;8.890;2022-10-16T00:08:07;14.30;99.90
26224;DHT22;14820;48.682;8.890;2022-10-16T00:10:33;14.40;99.90
26224;DHT22;14820;48.682;8.890;2022-10-16T00:12:59;14.20;99.90
26224;DHT22;14820;48.682;8.890;2022-10-16T00:15:25;14.20;99.90
26224;DHT22;14820;48.682;8.890;2022-10-16T00:17:50;14.20;99.90
26224;DHT22;14820;48.682;8.890;2022-10-16T00:20:16;14.20;99.90
26224;DHT22;14820;48.682;8.890;2022-10-16T00:22:41;14.20;99.90
26224;DHT22;14820;48.682;8.890;2022-10-16T00:25:07;14.20;99.90
26224;DHT22;14820;48.682;8.890;2022-10-16T00:27:33;14.20;99.90
26224;DHT22;14820;48.682;8.890;2022-10-16T00:29:59;14.10;99.90
26224;DHT22;14820;48.682;8.890;2022-10-16T00:32:25;14.10;99.90
26224;DHT22;14820;48.682;8.890;2022-10-16T00:34:50;14.10;99.90
26224;DHT22;14820;48.682;8.890;2022-10-16T00:37:16;14.10;99.90
26224;DHT22;14820;48.682;8.890;2022-10-16T00:39:42;14.10;99.90
26224;DHT22;14820;48.682;8.890;2022-10-16T00:42:20;14.10;99.90
26224;DHT22;14820;48.682;8.890;2022-10-16T00:44:50;14.10;99.90
26224;DHT22;14820;48.682;8.890;2022-10-16T00:50:21;14.10;99.90
26224;DHT22;14820;48.682;8.890;2022-10-16T00:52:50;14.10;99.90
26224;DHT22;14820;48.682;8.890;2022-10-16T00:55:17;14.10;99.90
26224;DHT22;14820;48.682;8.890;2022-10-16T00:57:44;14.10;99.90
26224;DHT22;14820;48.682;8.890;2022-10-16T01:00:12;14.10;99.90
26224;DHT22;14820;48.682;8.890;2022-10-16T01:02:39;14.10;99.90
26224;DHT22;14820;48.682;8.890;2022-10-16T01:05:05;14.00;99.90
26224;DHT22;14820;48.682;8.890;2022-10-16T01:07:41;14.10;99.90
26224;DHT22;14820;48.682;8.890;2022-10-16T01:12:53;14.10;99.90
26224;DHT22;14820;48.682;8.890;2022-10-16T01:15:30;14.00;99.90
26224;DHT22;14820;48.682;8.890;2022-10-16T01:18:12;14.00;99.90
26224;DHT22;14820;48.682;8.890;2022-10-16T01:21:03;14.00;99.90
26224;DHT22;14820;48.682;8.890;2022-10-16T01:31:22;14.00;99.90
26224;DHT22;14820;48.682;8.890;2022-10-16T01:34:05;14.00;99.90
26224;DHT22;14820;48.682;8.890;2022-10-16T01:36:38;14.10;99.90
26224;DHT22;14820;48.682;8.890;2022-10-16T01:39:06;14.10;99.90
26224;DHT22;14820;48.682;8.890;2022-10-16T01:41:38;14.10;99.90
26224;DHT22;14820;48.682;8.890;2022-10-16T01:44:11;14.10;99.90
26224;DHT22;14820;48.682;8.890;2022-10-16T01:46:44;14.10;99.90
26224;DHT22;14820;48.682;8.890;2022-10-16T01:49:11;14.10;99.90
26224;DHT22;14820;48.682;8.890;2022-10-16T01:51:38;14.10;99.90
26224;DHT22;14820;48.682;8.890;2022-10-16T01:54:06;14.10;99.90
26224;DHT22;14820;48.682;8.890;2022-10-16T01:56:34;14.10;99.90
26224;DHT22;14820;48.682;8.890;2022-10-16T01:59:07;14.10;99.90
26224;DHT22;14820;48.682;8.890;2022-10-16T02:01:38;14.10;99.90
26224;DHT22;14820;48.682;8.890;2022-10-16T02:04:13;14.10;99.90
26224;DHT22;14820;48.682;8.890;2022-10-16T02:06:41;14.10;99.90
26224;DHT22;14820;48.682;8.890;2022-10-16T02:09:07;14.10;99.90
26224;DHT22;14820;48.682;8.890;2022-10-16T02:11:32;14.10;99.90
26224;DHT22;14820;48.682;8.890;2022-10-16T02:14:01;14.10;99.90
26224;DHT22;14820;48.682;8.890;2022-10-16T02:16:43;14.10;99.90
26224;DHT22;14820;48.682;8.890;2022-10-16T02:19:09;14.10;99.90
26224;DHT22;14820;48.682;8.890;2022-10-16T02:21:49;14.10;99.90
26224;DHT22;14820;48.682;8.890;2022-10-16T02:24:18;14.10;99.90
26224;DHT22;14820;48.682;8.890;2022-10-16T02:27:00;14.10;99.90
26224;DHT22;14820;48.682;8.890;2022-10-16T02:29:29;14.20;99.90
26224;DHT22;14820;48.682;8.890;2022-10-16T02:32:02;14.20;99.90
26224;DHT22;14820;48.682;8.890;2022-10-16T02:34:31;14.20;99.90
26224;DHT22;14820;48.682;8.890;2022-10-16T02:36:58;14.10;99.90
26224;DHT22;14820;48.682;8.890;2022-10-16T02:39:27;14.10;99.90
26224;DHT22;14820;48.682;8.890;2022-10-16T02:41:53;14.10;99.90
26224;DHT22;14820;48.682;8.890;2022-10-16T02:44:18;14.10;99.90
26224;DHT22;14820;48.682;8.890;2022-10-16T02:46:44;14.10;99.90
26224;DHT22;14820;48.682;8.890;2022-10-16T02:49:10;14.10;99.90
26224;DHT22;14820;48.682;8.890;2022-10-16T02:51:35;14.10;99.90
26224;DHT22;14820;48.682;8.890;2022-10-16T02:54:02;14.10;99.90
26224;DHT22;14820;48.682;8.890;2022-10-16T02:56:27;14.10;99.90
26224;DHT22;14820;48.682;8.890;2022-10-16T02:58:53;14.10;99.90
26224;DHT22;14820;48.682;8.890;2022-10-16T03:01:19;14.10;99.90
26224;DHT22;14820;48.682;8.890;2022-10-16T03:03:44;14.10;99.90
26224;DHT22;14820;48.682;8.890;2022-10-16T03:06:10;14.10;99.90
26224;DHT22;14820;48.682;8.890;2022-10-16T03:08:36;14.00;99.90
26224;DHT22;14820;48.682;8.890;2022-10-16T03:11:01;14.00;99.90
26224;DHT22;14820;48.682;8.890;2022-10-16T03:13:27;14.00;99.90
26224;DHT22;14820;48.682;8.890;2022-10-16T03:15:52;14.10;99.90
26224;DHT22;14820;48.682;8.890;2022-10-16T03:18:18;14.10;99.90
26224;DHT22;14820;48.682;8.890;2022-10-16T03:20:44;14.00;99.90
26224;DHT22;14820;48.682;8.890;2022-10-16T03:23:09;14.00;99.90
26224;DHT22;14820;48.682;8.890;2022-10-16T03:25:35;14.00;99.90
26224;DHT22;14820;48.682;8.890;2022-10-16T03:28:01;14.00;99.90
26224;DHT22;14820;48.682;8.890;2022-10-16T03:30:27;14.00;99.90
26224;DHT22;14820;48.682;8.890;2022-10-16T03:32:52;14.00;99.90
26224;DHT22;14820;48.682;8.890;2022-10-16T03:35:23;14.10;99.90
26224;DHT22;14820;48.682;8.890;2022-10-16T03:37:49;14.00;99.90
26224;DHT22;14820;48.682;8.890;2022-10-16T03:40:15;14.00;99.90
26224;DHT22;14820;48.682;8.890;2022-10-16T03:42:42;14.00;99.90
26224;DHT22;14820;48.682;8.890;2022-10-16T03:45:08;14.00;99.90
26224;DHT22;14820;48.682;8.890;2022-10-16T03:47:34;14.00;99.90
26224;DHT22;14820;48.682;8.890;2022-10-16T03:50:00;13.90;99.90
26224;DHT22;14820;48.682;8.890;2022-10-16T03:52:26;13.90;99.90
26224;DHT22;14820;48.682;8.890;2022-10-16T03:54:51;13.90;99.90
26224;DHT22;14820;48.682;8.890;2022-10-16T03:57:17;13.80;99.90
26224;DHT22;14820;48.682;8.890;2022-10-16T03:59:43;13.80;99.90
26224;DHT22;14820;48.682;8.890;2022-10-16T04:02:09;13.70;99.90
26224;DHT22;14820;48.682;8.890;2022-10-16T04:04:35;13.70;99.90
26224;DHT22;14820;48.682;8.890;2022-10-16T04:07:01;13.60;99.90
26224;DHT22;14820;48.682;8.890;2022-10-16T04:09:26;13.60;99.90
26224;DHT22;14820;48.682;8.890;2022-10-16T04:11:52;13.60;99.90
26224;DHT22;14820;48.682;8.890;2022-10-16T04:14:18;13.60;99.90
26224;DHT22;14820;48.682;8.890;2022-10-16T04:16:44;13.60;99.90
26224;DHT22;14820;48.682;8.890;2022-10-16T04:19:10;13.60;99.90
26224;DHT22;14820;48.682;8.890;2022-10-16T04:21:36;13.60;99.90
26224;DHT22;14820;48.682;8.890;2022-10-16T04:24:02;13.60;99.90
26224;DHT22;14820;48.682;8.890;2022-10-16T04:26:28;13.60;99.90
26224;DHT22;14820;48.682;8.890;2022-10-16T04:28:54;13.60;99.90
26224;DHT22;14820;48.682;8.890;2022-10-16T04:31:20;13.60;99.90
26224;DHT22;14820;48.682;8.890;2022-10-16T04:33:46;13.50;99.90
26224;DHT22;14820;48.682;8.890;2022-10-16T04:36:12;13.50;99.90
26224;DHT22;14820;48.682;8.890;2022-10-16T04:38:38;13.50;99.90
26224;DHT22;14820;48.682;8.890;2022-10-16T04:41:05;13.50;99.90
26224;DHT22;14820;48.682;8.890;2022-10-16T04:43:31;13.50;99.90
26224;DHT22;14820;48.682;8.890;2022-10-16T04:45:56;13.50;99.90
26224;DHT22;14820;48.682;8.890;2022-10-16T04:48:22;13.50;99.90
26224;DHT22;14820;48.682;8.890;2022-10-16T04:50:48;13.60;99.90
26224;DHT22;14820;48.682;8.890;2022-10-16T04:53:14;13.60;99.90
26224;DHT22;14820;48.682;8.890;2022-10-16T04:55:40;13.50;99.90
26224;DHT22;14820;48.682;8.890;2022-10-16T04:58:06;13.50;99.90
26224;DHT22;14820;48.682;8.890;2022-10-16T05:00:33;13.50;99.90
26224;DHT22;14820;48.682;8.890;2022-10-16T05:02:58;13.50;99.90
26224;DHT22;14820;48.682;8.890;2022-10-16T05:05:26;13.40;99.90
26224;DHT22;14820;48.682;8.890;2022-10-16T05:07:52;13.40;99.90
26224;DHT22;14820;48.682;8.890;2022-10-16T05:10:18;13.40;99.90
26224;DHT22;14820;48.682;8.890;2022-10-16T05:12:45;13.40;99.90
26224;DHT22;14820;48.682;8.890;2022-10-16T05:15:11;13.30;99.90
26224;DHT22;14820;48.682;8.890;2022-10-16T05:17:37;13.30;99.90
26224;DHT22;14820;48.682;8.890;2022-10-16T05:20:03;13.30;99.90
26224;DHT22;14820;48.682;8.890;2022-10-16T05:22:29;13.30;99.90
26224;DHT22;14820;48.682;8.890;2022-10-16T05:24:55;13.20;99.90
26224;DHT22;14820;48.682;8.890;2022-10-16T05:27:20;13.20;99.90
26224;DHT22;14820;48.682;8.890;2022-10-16T05:29:47;13.20;99.90
26224;DHT22;14820;48.682;8.890;2022-10-16T05:32:16;13.20;99.90
26224;DHT22;14820;48.682;8.890;2022-10-16T05:34:42;13.20;99.90
26224;DHT22;14820;48.682;8.890;2022-10-16T05:37:08;13.10;99.90
26224;DHT22;14820;48.682;8.890;2022-10-16T05:39:34;13.10;99.90
26224;DHT22;14820;48.682;8.890;2022-10-16T05:42:00;13.10;99.90
26224;DHT22;14820;48.682;8.890;2022-10-16T05:44:25;13.10;99.90
26224;DHT22;14820;48.682;8.890;2022-10-16T05:46:51;13.10;99.90
26224;DHT22;14820;48.682;8.890;2022-10-16T05:49:17;13.10;99.90
26224;DHT22;14820;48.682;8.890;2022-10-16T05:51:42;13.10;99.90
26224;DHT22;14820;48.682;8.890;2022-10-16T05:54:08;13.10;99.90
26224;DHT22;14820;48.682;8.890;2022-10-16T05:56:34;13.00;99.90
26224;DHT22;14820;48.682;8.890;2022-10-16T05:59:00;13.00;99.90
26224;DHT22;14820;48.682;8.890;2022-10-16T06:01:25;13.10;99.90
26224;DHT22;14820;48.682;8.890;2022-10-16T06:03:51;13.10;99.90
26224;DHT22;14820;48.682;8.890;2022-10-16T06:06:20;13.10;99.90
26224;DHT22;14820;48.682;8.890;2022-10-16T06:08:47;13.10;99.90
26224;DHT22;14820;48.682;8.890;2022-10-16T06:11:21;13.10;99.90
26224;DHT22;14820;48.682;8.890;2022-10-16T06:13:55;13.10;99.90
26224;DHT22;14820;48.682;8.890;2022-10-16T06:16:26;13.10;99.90
26224;DHT22;14820;48.682;8.890;2022-10-16T06:18:53;13.10;99.90
26224;DHT22;14820;48.682;8.890;2022-10-16T06:21:21;13.10;99.90
26224;DHT22;14820;48.682;8.890;2022-10-16T06:23:48;13.20;99.90
26224;DHT22;14820;48.682;8.890;2022-10-16T06:26:17;13.10;99.90
26224;DHT22;14820;48.682;8.890;2022-10-16T06:28:43;13.10;99.90
26224;DHT22;14820;48.682;8.890;2022-10-16T06:31:10;13.10;99.90
26224;DHT22;14820;48.682;8.890;2022-10-16T06:33:37;13.10;99.90
26224;DHT22;14820;48.682;8.890;2022-10-16T06:36:14;13.10;99.90
26224;DHT22;14820;48.682;8.890;2022-10-16T06:38:40;13.10;99.90
26224;DHT22;14820;48.682;8.890;2022-10-16T06:41:09;13.20;99.90
26224;DHT22;14820;48.682;8.890;2022-10-16T06:43:34;13.20;99.90
26224;DHT22;14820;48.682;8.890;2022-10-16T06:46:02;13.20;99.90
26224;DHT22;14820;48.682;8.890;2022-10-16T06:48:28;13.20;99.90
26224;DHT22;14820;48.682;8.890;2022-10-16T06:51:11;13.20;99.90
26224;DHT22;14820;48.682;8.890;2022-10-16T06:53:42;13.30;99.90
26224;DHT22;14820;48.682;8.890;2022-10-16T06:56:14;13.30;99.90
26224;DHT22;14820;48.682;8.890;2022-10-16T06:58:41;13.30;99.90
26224;DHT22;14820;48.682;8.890;2022-10-16T07:01:08;13.30;99.90
26224;DHT22;14820;48.682;8.890;2022-10-16T07:03:37;13.40;99.90
26224;DHT22;14820;48.682;8.890;2022-10-16T07:06:05;13.40;99.90
26224;DHT22;14820;48.682;8.890;2022-10-16T07:08:42;13.40;99.90
26224;DHT22;14820;48.682;8.890;2022-10-16T07:11:10;13.40;99.90
26224;DHT22;14820;48.682;8.890;2022-10-16T07:13:37;13.40;99.90
26224;DHT22;14820;48.682;8.890;2022-10-16T07:16:32;13.50;99.90
26224;DHT22;14820;48.682;8.890;2022-10-16T07:18:59;13.50;99.90
26224;DHT22;14820;48.682;8.890;2022-10-16T07:21:30;13.50;99.90
26224;DHT22;14820;48.682;8.890;2022-10-16T07:23:59;13.50;99.90
26224;DHT22;14820;48.682;8.890;2022-10-16T07:26:28;13.50;99.90
26224;DHT22;14820;48.682;8.890;2022-10-16T07:28:53;13.50;99.90
26224;DHT22;14820;48.682;8.890;2022-10-16T07:31:20;13.50;99.90
26224;DHT22;14820;48.682;8.890;2022-10-16T07:33:47;13.50;99.90
26224;DHT22;14820;48.682;8.890;2022-10-16T07:36:15;13.60;99.90
26224;DHT22;14820;48.682;8.890;2022-10-16T07:38:41;13.60;99.90
26224;DHT22;14820;48.682;8.890;2022-10-16T07:41:16;13.60;99.90
26224;DHT22;14820;48.682;8.890;2022-10-16T07:43:50;13.70;99.90
26224;DHT22;14820;48.682;8.890;2022-10-16T07:46:17;13.70;99.90
26224;DHT22;14820;48.682;8.890;2022-10-16T07:48:43;13.70;99.90
26224;DHT22;14820;48.682;8.890;2022-10-16T07:51:13;13.70;99.90
26224;DHT22;14820;48.682;8.890;2022-10-16T07:53:39;13.80;99.90
26224;DHT22;14820;48.682;8.890;2022-10-16T07:56:06;13.80;99.90
26224;DHT22;14820;48.682;8.890;2022-10-16T07:58:33;13.80;99.90
26224;DHT22;14820;48.682;8.890;2022-10-16T08:01:03;14.00;99.90
26224;DHT22;14820;48.682;8.890;2022-10-16T08:03:29;14.00;99.90
26224;DHT22;14820;48.682;8.890;2022-10-16T08:05:56;14.10;99.90
26224;DHT22;14820;48.682;8.890;2022-10-16T08:08:22;14.10;99.90
26224;DHT22;14820;48.682;8.890;2022-10-16T08:10:48;14.10;99.90
26224;DHT22;14820;48.682;8.890;2022-10-16T08:13:15;14.20;99.90
26224;DHT22;14820;48.682;8.890;2022-10-16T08:15:44;14.30;99.90
26224;DHT22;14820;48.682;8.890;2022-10-16T08:18:11;14.40;99.90
26224;DHT22;14820;48.682;8.890;2022-10-16T08:20:38;14.50;99.90
26224;DHT22;14820;48.682;8.890;2022-10-16T08:23:04;14.60;99.90
26224;DHT22;14820;48.682;8.890;2022-10-16T08:25:29;14.70;99.90
26224;DHT22;14820;48.682;8.890;2022-10-16T08:27:55;14.80;99.90
26224;DHT22;14820;48.682;8.890;2022-10-16T08:30:23;14.80;99.90
26224;DHT22;14820;48.682;8.890;2022-10-16T08:32:49;14.90;99.90
26224;DHT22;14820;48.682;8.890;2022-10-16T08:35:15;14.90;99.90
26224;DHT22;14820;48.682;8.890;2022-10-16T08:37:42;14.90;99.90
26224;DHT22;14820;48.682;8.890;2022-10-16T08:40:18;14.90;99.90
26224;DHT22;14820;48.682;8.890;2022-10-16T08:43:21;14.90;99.90
26224;DHT22;14820;48.682;8.890;2022-10-16T08:46:01;15.00;99.90
26224;DHT22;14820;48.682;8.890;2022-10-16T08:48:41;15.00;99.90
26224;DHT22;14820;48.682;8.890;2022-10-16T08:51:12;15.10;99.90
26224;DHT22;14820;48.682;8.890;2022-10-16T08:53:55;15.10;99.90
26224;DHT22;14820;48.682;8.890;2022-10-16T08:56:21;15.20;99.90
26224;DHT22;14820;48.682;8.890;2022-10-16T08:58:47;15.20;99.90
26224;DHT22;14820;48.682;8.890;2022-10-16T09:01:15;15.20;99.90
26224;DHT22;14820;48.682;8.890;2022-10-16T09:06:57;15.40;99.90
26224;DHT22;14820;48.682;8.890;2022-10-16T09:12:20;15.60;99.90
26224;DHT22;14820;48.682;8.890;2022-10-16T09:22:44;16.20;99.90
26224;DHT22;14820;48.682;8.890;2022-10-16T09:25:14;16.30;99.90
26224;DHT22;14820;48.682;8.890;2022-10-16T09:27:42;16.40;99.90
26224;DHT22;14820;48.682;8.890;2022-10-16T09:30:18;16.40;99.90
26224;DHT22;14820;48.682;8.890;2022-10-16T09:32:47;16.40;99.90
26224;DHT22;14820;48.682;8.890;2022-10-16T09:35:37;16.40;99.90
26224;DHT22;14820;48.682;8.890;2022-10-16T09:38:01;16.50;99.90
26224;DHT22;14820;48.682;8.890;2022-10-16T09:40:38;16.60;99.90
26224;DHT22;14820;48.682;8.890;2022-10-16T09:43:22;16.60;99.90
26224;DHT22;14820;48.682;8.890;2022-10-16T09:46:03;16.60;99.90
26224;DHT22;14820;48.682;8.890;2022-10-16T09:48:39;16.70;99.90
26224;DHT22;14820;48.682;8.890;2022-10-16T09:51:20;16.80;99.90
26224;DHT22;14820;48.682;8.890;2022-10-16T09:53:47;16.90;99.90
26224;DHT22;14820;48.682;8.890;2022-10-16T09:56:22;17.00;99.90
26224;DHT22;14820;48.682;8.890;2022-10-16T09:58:57;17.30;99.90
26224;DHT22;14820;48.682;8.890;2022-10-16T10:01:30;17.40;99.90
26224;DHT22;14820;48.682;8.890;2022-10-16T10:03:57;17.80;99.90
26224;DHT22;14820;48.682;8.890;2022-10-16T10:06:34;17.90;99.90
26224;DHT22;14820;48.682;8.890;2022-10-16T10:16:52;18.60;99.90
26224;DHT22;14820;48.682;8.890;2022-10-16T10:19:21;18.60;99.90
26224;DHT22;14820;48.682;8.890;2022-10-16T10:21:47;18.50;99.90
26224;DHT22;14820;48.682;8.890;2022-10-16T10:24:15;18.40;99.90
26224;DHT22;14820;48.682;8.890;2022-10-16T10:27:05;18.40;99.90
26224;DHT22;14820;48.682;8.890;2022-10-16T10:29:50;18.30;99.90
26224;DHT22;14820;48.682;8.890;2022-10-16T10:32:30;18.40;99.90
26224;DHT22;14820;48.682;8.890;2022-10-16T10:35:30;18.30;99.90
26224;DHT22;14820;48.682;8.890;2022-10-16T10:45:48;18.90;99.90
26224;DHT22;14820;48.682;8.890;2022-10-16T10:51:12;19.30;99.90
26224;DHT22;14820;48.682;8.890;2022-10-16T10:54:03;19.40;99.90
26224;DHT22;14820;48.682;8.890;2022-10-16T10:57:06;19.50;99.90
26224;DHT22;14820;48.682;8.890;2022-10-16T11:00:06;19.40;99.90
26224;DHT22;14820;48.682;8.890;2022-10-16T11:02:43;19.40;99.90
26224;DHT22;14820;48.682;8.890;2022-10-16T11:05:52;19.40;99.90
26224;DHT22;14820;48.682;8.890;2022-10-16T11:08:24;19.30;99.90
26224;DHT22;14820;48.682;8.890;2022-10-16T11:10:52;19.30;99.90
26224;DHT22;14820;48.682;8.890;2022-10-16T11:15:48;19.20;99.90
26224;DHT22;14820;48.682;8.890;2022-10-16T11:18:21;19.20;99.90
26224;DHT22;14820;48.682;8.890;2022-10-16T11:20:59;19.30;99.90
26224;DHT22;14820;48.682;8.890;2022-10-16T11:23:30;19.30;99.90
26224;DHT22;14820;48.682;8.890;2022-10-16T11:26:02;19.40;99.90
26224;DHT22;14820;48.682;8.890;2022-10-16T11:28:32;19.50;99.90
26224;DHT22;14820;48.682;8.890;2022-10-16T11:36:26;20.10;99.90
26224;DHT22;14820;48.682;8.890;2022-10-16T11:41:44;20.20;99.90
26224;DHT22;14820;48.682;8.890;2022-10-16T11:44:35;20.20;99.90
26224;DHT22;14820;48.682;8.890;2022-10-16T11:53:19;20.70;99.90
26224;DHT22;14820;48.682;8.890;2022-10-16T11:55:47;20.80;99.90
26224;DHT22;14820;48.682;8.890;2022-10-16T11:58:26;20.80;99.90
26224;DHT22;14820;48.682;8.890;2022-10-16T12:08:51;20.60;99.90
26224;DHT22;14820;48.682;8.890;2022-10-16T12:14:03;20.60;99.90
26224;DHT22;14820;48.682;8.890;2022-10-16T12:16:29;20.60;99.90
26224;DHT22;14820;48.682;8.890;2022-10-16T12:21:36;20.60;99.90
26224;DHT22;14820;48.682;8.890;2022-10-16T12:24:03;20.50;99.90
26224;DHT22;14820;48.682;8.890;2022-10-16T12:26:34;20.50;99.90
26224;DHT22;14820;48.682;8.890;2022-10-16T12:29:55;20.50;99.90
26224;DHT22;14820;48.682;8.890;2022-10-16T12:32:29;20.50;99.90
26224;DHT22;14820;48.682;8.890;2022-10-16T12:34:56;20.40;99.90
26224;DHT22;14820;48.682;8.890;2022-10-16T12:37:34;20.40;99.90
26224;DHT22;14820;48.682;8.890;2022-10-16T12:40:12;20.30;99.90
26224;DHT22;14820;48.682;8.890;2022-10-16T12:42:39;20.30;99.90
26224;DHT22;14820;48.682;8.890;2022-10-16T12:47:51;20.30;99.90
26224;DHT22;14820;48.682;8.890;2022-10-16T12:52:49;20.40;99.90
26224;DHT22;14820;48.682;8.890;2022-10-16T12:55:20;20.40;99.90
26224;DHT22;14820;48.682;8.890;2022-10-16T13:15:32;20.60;99.90
26224;DHT22;14820;48.682;8.890;2022-10-16T13:18:38;20.70;99.90
26224;DHT22;14820;48.682;8.890;2022-10-16T13:24:10;20.70;99.90
26224;DHT22;14820;48.682;8.890;2022-10-16T13:29:09;20.70;99.90
26224;DHT22;14820;48.682;8.890;2022-10-16T13:31:38;20.70;99.90
26224;DHT22;14820;48.682;8.890;2022-10-16T13:34:05;20.70;99.90
26224;DHT22;14820;48.682;8.890;2022-10-16T13:36:43;20.70;99.90
26224;DHT22;14820;48.682;8.890;2022-10-16T13:42:32;20.60;99.90
26224;DHT22;14820;48.682;8.890;2022-10-16T13:44:39;20.60;99.90
26224;DHT22;14820;48.682;8.890;2022-10-16T13:47:10;20.50;99.90
26224;DHT22;14820;48.682;8.890;2022-10-16T13:49:40;20.50;99.90
26224;DHT22;14820;48.682;8.890;2022-10-16T13:52:05;20.50;99.90
26224;DHT22;14820;48.682;8.890;2022-10-16T13:54:31;20.50;99.90
26224;DHT22;14820;48.682;8.890;2022-10-16T13:57:05;20.50;99.90
26224;DHT22;14820;48.682;8.890;2022-10-16T13:59:37;20.50;99.90
26224;DHT22;14820;48.682;8.890;2022-10-16T14:04:47;20.40;99.90
26224;DHT22;14820;48.682;8.890;2022-10-16T14:07:20;20.40;99.90
26224;DHT22;14820;48.682;8.890;2022-10-16T14:09:49;20.40;99.90
26224;DHT22;14820;48.682;8.890;2022-10-16T14:12:15;20.40;99.90
26224;DHT22;14820;48.682;8.890;2022-10-16T14:14:43;20.40;99.90
26224;DHT22;14820;48.682;8.890;2022-10-16T14:17:27;20.40;99.90
26224;DHT22;14820;48.682;8.890;2022-10-16T14:19:57;20.40;99.90
26224;DHT22;14820;48.682;8.890;2022-10-16T14:22:36;20.40;99.90
26224;DHT22;14820;48.682;8.890;2022-10-16T14:27:56;20.50;99.90
26224;DHT22;14820;48.682;8.890;2022-10-16T14:30:23;20.50;99.90
26224;DHT22;14820;48.682;8.890;2022-10-16T14:33:00;20.50;99.90
26224;DHT22;14820;48.682;8.890;2022-10-16T14:35:35;20.50;99.90
26224;DHT22;14820;48.682;8.890;2022-10-16T14:38:02;20.60;99.90
26224;DHT22;14820;48.682;8.890;2022-10-16T14:40:36;20.60;99.90
26224;DHT22;14820;48.682;8.890;2022-10-16T14:43:04;20.60;99.90
26224;DHT22;14820;48.682;8.890;2022-10-16T14:45:32;20.60;99.90
26224;DHT22;14820;48.682;8.890;2022-10-16T14:48:01;20.60;99.90
26224;DHT22;14820;48.682;8.890;2022-10-16T14:50:28;20.70;99.90
26224;DHT22;14820;48.682;8.890;2022-10-16T14:52:57;20.80;99.90
26224;DHT22;14820;48.682;8.890;2022-10-16T14:55:24;20.80;99.90
26224;DHT22;14820;48.682;8.890;2022-10-16T14:57:50;20.80;99.90
26224;DHT22;14820;48.682;8.890;2022-10-16T15:00:21;20.90;99.90
26224;DHT22;14820;48.682;8.890;2022-10-16T15:02:49;20.90;99.90
26224;DHT22;14820;48.682;8.890;2022-10-16T15:05:20;20.80;99.90
26224;DHT22;14820;48.682;8.890;2022-10-16T15:07:47;20.80;99.90
26224;DHT22;14820;48.682;8.890;2022-10-16T15:10:15;20.80;99.90
26224;DHT22;14820;48.682;8.890;2022-10-16T15:12:41;20.80;99.90
26224;DHT22;14820;48.682;8.890;2022-10-16T15:15:43;20.80;99.90
26224;DHT22;14820;48.682;8.890;2022-10-16T15:18:06;20.80;99.90
26224;DHT22;14820;48.682;8.890;2022-10-16T15:20:38;20.70;99.90
26224;DHT22;14820;48.682;8.890;2022-10-16T15:23:09;20.70;99.90
26224;DHT22;14820;48.682;8.890;2022-10-16T15:28:08;20.60;99.90
26224;DHT22;14820;48.682;8.890;2022-10-16T15:30:35;20.50;99.90
26224;DHT22;14820;48.682;8.890;2022-10-16T15:33:01;20.50;99.90
26224;DHT22;14820;48.682;8.890;2022-10-16T15:35:27;20.40;99.90
26224;DHT22;14820;48.682;8.890;2022-10-16T15:37:53;20.40;99.90
26224;DHT22;14820;48.682;8.890;2022-10-16T15:40:20;20.30;99.90
26224;DHT22;14820;48.682;8.890;2022-10-16T15:42:46;20.30;99.90
26224;DHT22;14820;48.682;8.890;2022-10-16T15:45:12;20.20;99.90
26224;DHT22;14820;48.682;8.890;2022-10-16T15:47:40;20.20;99.90
26224;DHT22;14820;48.682;8.890;2022-10-16T15:50:06;20.20;99.90
26224;DHT22;14820;48.682;8.890;2022-10-16T15:52:32;20.20;99.90
26224;DHT22;14820;48.682;8.890;2022-10-16T15:54:58;20.10;99.90
26224;DHT22;14820;48.682;8.890;2022-10-16T15:57:24;20.00;99.90
26224;DHT22;14820;48.682;8.890;2022-10-16T15:59:50;19.90;99.90
26224;DHT22;14820;48.682;8.890;2022-10-16T16:02:16;19.80;99.90
26224;DHT22;14820;48.682;8.890;2022-10-16T16:04:42;19.70;99.90
26224;DHT22;14820;48.682;8.890;2022-10-16T16:07:07;19.60;99.90
26224;DHT22;14820;48.682;8.890;2022-10-16T16:09:33;19.60;99.90
26224;DHT22;14820;48.682;8.890;2022-10-16T16:11:59;19.50;99.90
26224;DHT22;14820;48.682;8.890;2022-10-16T16:14:27;19.50;99.90
26224;DHT22;14820;48.682;8.890;2022-10-16T16:16:57;19.30;99.90
26224;DHT22;14820;48.682;8.890;2022-10-16T16:19:23;19.30;99.90
26224;DHT22;14820;48.682;8.890;2022-10-16T16:21:49;19.30;99.90
26224;DHT22;14820;48.682;8.890;2022-10-16T16:24:15;19.20;99.90
26224;DHT22;14820;48.682;8.890;2022-10-16T16:26:41;19.10;99.90
26224;DHT22;14820;48.682;8.890;2022-10-16T16:29:12;19.00;99.90
26224;DHT22;14820;48.682;8.890;2022-10-16T16:31:40;18.90;99.90
26224;DHT22;14820;48.682;8.890;2022-10-16T16:34:06;18.80;99.90
26224;DHT22;14820;48.682;8.890;2022-10-16T16:36:34;18.70;99.90
26224;DHT22;14820;48.682;8.890;2022-10-16T16:39:00;18.60;99.90
26224;DHT22;14820;48.682;8.890;2022-10-16T16:41:28;18.50;99.90
26224;DHT22;14820;48.682;8.890;2022-10-16T16:43:55;18.40;99.90
26224;DHT22;14820;48.682;8.890;2022-10-16T16:46:22;18.30;99.90
26224;DHT22;14820;48.682;8.890;2022-10-16T16:48:47;18.20;99.90
26224;DHT22;14820;48.682;8.890;2022-10-16T16:51:16;18.20;99.90
26224;DHT22;14820;48.682;8.890;2022-10-16T16:53:46;18.10;99.90
26224;DHT22;14820;48.682;8.890;2022-10-16T16:56:13;18.00;99.90
26224;DHT22;14820;48.682;8.890;2022-10-16T16:58:39;18.00;99.90
26224;DHT22;14820;48.682;8.890;2022-10-16T17:01:05;17.80;99.90
26224;DHT22;14820;48.682;8.890;2022-10-16T17:03:33;17.80;99.90
26224;DHT22;14820;48.682;8.890;2022-10-16T17:06:01;17.70;99.90
26224;DHT22;14820;48.682;8.890;2022-10-16T17:08:28;17.60;99.90
26224;DHT22;14820;48.682;8.890;2022-10-16T17:10:54;17.60;99.90
26224;DHT22;14820;48.682;8.890;2022-10-16T17:13:22;17.50;99.90
26224;DHT22;14820;48.682;8.890;2022-10-16T17:15:49;17.40;99.90
26224;DHT22;14820;48.682;8.890;2022-10-16T17:18:16;17.40;99.90
26224;DHT22;14820;48.682;8.890;2022-10-16T17:20:42;17.20;99.90
26224;DHT22;14820;48.682;8.890;2022-10-16T17:23:09;17.10;99.90
26224;DHT22;14820;48.682;8.890;2022-10-16T17:25:36;17.10;99.90
26224;DHT22;14820;48.682;8.890;2022-10-16T17:28:02;17.10;99.90
26224;DHT22;14820;48.682;8.890;2022-10-16T17:30:28;17.00;99.90
26224;DHT22;14820;48.682;8.890;2022-10-16T17:32:54;16.90;99.90
26224;DHT22;14820;48.682;8.890;2022-10-16T17:35:20;16.80;99.90
26224;DHT22;14820;48.682;8.890;2022-10-16T17:37:45;16.80;99.90
26224;DHT22;14820;48.682;8.890;2022-10-16T17:40:11;16.70;99.90